Bookmark and Share
Track history (hours):
 

Chitose

Last reported at 2014-Apr-24 08:34 UTC. Time now 2014-Apr-24 09:23 UTC.
Position N 35°27' E 139°40'.

Length 33 m; draft 3.8 m.

Type: Tug. MMSI: 431000953.

NotesDate/timePositionNaut miles runAvg speedWind from/ knotsBaromVisibWave heightAir tempDewpointWater temp
2014-Apr-24 08:34N 35°27' E 139°40'1 0.9
2014-Apr-24 07:34N 35°27' E 139°39'0 0.0
2014-Apr-24 06:34N 35°27' E 139°39'0 0.0
2014-Apr-24 05:34N 35°27' E 139°39'0 0.0
2014-Apr-24 04:34N 35°27' E 139°39'0 0.0
2014-Apr-24 03:33N 35°27' E 139°39'0 0.0
2014-Apr-24 02:34N 35°27' E 139°39'1 1.4
2014-Apr-24 01:34N 35°26' E 139°41'1 1.4
2014-Apr-24 00:34N 35°27' E 139°39'0 0.0
2014-Apr-23 23:34N 35°27' E 139°39'0 0.0
2014-Apr-23 22:33N 35°27' E 139°39'0 0.0
2014-Apr-22 23:28N 35°27' E 139°39'3 3.7
2014-Apr-22 22:33N 35°24' E 139°40'1 0.6
2014-Apr-22 21:34N 35°23' E 139°41'0 0.5
2014-Apr-22 20:33N 35°24' E 139°42'2 2.5
2014-Apr-22 19:33N 35°26' E 139°41'1 1.4
2014-Apr-22 18:33N 35°27' E 139°42'0 0.0
2014-Apr-22 17:33N 35°27' E 139°42'0 0.0
2014-Apr-22 16:33N 35°27' E 139°42'5 4.8
2014-Apr-22 15:33N 35°30' E 139°47'0 0.2
2014-Apr-22 14:33N 35°30' E 139°46'0 0.0
2014-Apr-22 13:33N 35°30' E 139°46'6 5.6
2014-Apr-22 12:34N 35°27' E 139°41'2 1.7
2014-Apr-22 11:33N 35°28' E 139°42'2 1.7
2014-Apr-22 10:33N 35°26' E 139°42'2 1.6
2014-Apr-22 09:34N 35°25' E 139°41'1 0.9
2014-Apr-22 08:33N 35°26' E 139°42'2 1.5
2014-Apr-22 07:33N 35°27' E 139°41'1 1.0
2014-Apr-22 06:33N 35°27' E 139°39'0 0.0
2014-Apr-22 05:33N 35°27' E 139°39'0 0.0
2014-Apr-22 04:33N 35°27' E 139°39'0 0.0
2014-Apr-22 03:33N 35°27' E 139°39'0 0.0
2014-Apr-22 02:33N 35°27' E 139°39'0 0.0
2014-Apr-22 01:33N 35°27' E 139°39'0 0.0
2014-Apr-22 00:33N 35°27' E 139°39'0 0.0
2014-Apr-21 23:33N 35°27' E 139°39'0 0.0
2014-Apr-21 22:33N 35°27' E 139°39'0 0.0
2014-Apr-21 07:11N 35°27' E 139°39'0 0.0
2014-Apr-21 06:33N 35°27' E 139°39'0 0.0
2014-Apr-21 05:33N 35°27' E 139°39'1 0.8
2014-Apr-21 04:33N 35°27' E 139°40'4 3.6
2014-Apr-21 03:34N 35°28' E 139°44'1 0.6
2014-Apr-21 02:33N 35°28' E 139°44'3 3.1
2014-Apr-21 01:33N 35°28' E 139°40'0 0.0
2014-Apr-21 00:33N 35°28' E 139°40'0 0.0
2014-Apr-20 23:33N 35°28' E 139°40'2 2.2
2014-Apr-20 22:33N 35°26' E 139°42'3 2.7
2014-Apr-20 21:33N 35°27' E 139°39'0 0.1
2014-Apr-20 20:33N 35°27' E 139°39'0 0.0
2014-Apr-20 08:33N 35°27' E 139°39'0 0.0
2014-Apr-20 07:33N 35°27' E 139°39'0 0.0
2014-Apr-20 06:33N 35°27' E 139°39'0 0.0
2014-Apr-20 05:33N 35°27' E 139°39'0 0.1
2014-Apr-20 04:34N 35°27' E 139°39'3 3.1
2014-Apr-20 03:33N 35°24' E 139°38'0 0.0
2014-Apr-20 02:33N 35°24' E 139°38'2 2.3
2014-Apr-20 01:33N 35°23' E 139°41'4 4.0
2014-Apr-20 00:33N 35°27' E 139°40'1 0.7
2014-Apr-19 23:33N 35°27' E 139°39'0 0.0
2014-Apr-19 22:33N 35°27' E 139°39'0 0.0
2014-Apr-19 01:33N 35°27' E 139°39'3 3.4
2014-Apr-19 00:33N 35°24' E 139°37'2 1.9
2014-Apr-18 23:33N 35°24' E 139°40'3 3.3
2014-Apr-18 22:33N 35°27' E 139°41'1 1.5
2014-Apr-18 21:33N 35°26' E 139°43'3 2.8
2014-Apr-18 20:33N 35°27' E 139°39'0 0.0
2014-Apr-18 19:33N 35°27' E 139°39'1 1.4
2014-Apr-18 18:33N 35°26' E 139°41'1 1.3
2014-Apr-18 17:33N 35°28' E 139°40'0 0.0
2014-Apr-18 16:33N 35°28' E 139°40'0 0.0
2014-Apr-18 15:33N 35°28' E 139°40'0 0.0
2014-Apr-18 14:33N 35°28' E 139°40'0 0.0
2014-Apr-18 13:33N 35°28' E 139°40'0 0.0
2014-Apr-18 12:33N 35°28' E 139°40'0 0.0
2014-Apr-18 11:33N 35°28' E 139°40'0 0.0
2014-Apr-18 10:33N 35°28' E 139°40'2 1.7
2014-Apr-18 09:33N 35°27' E 139°42'1 0.9
2014-Apr-18 08:33N 35°27' E 139°41'2 1.6
2014-Apr-18 07:33N 35°27' E 139°39'0 0.0
2014-Apr-18 06:33N 35°27' E 139°39'0 0.0
2014-Apr-18 05:33N 35°27' E 139°39'0 0.0
2014-Apr-18 04:33N 35°27' E 139°39'0 0.0
2014-Apr-18 03:33N 35°27' E 139°39'0 0.0
2014-Apr-18 02:33N 35°27' E 139°39'0 0.0
2014-Apr-18 01:33N 35°27' E 139°39'0 0.0
2014-Apr-18 00:33N 35°27' E 139°39'0 0.0
2014-Apr-17 23:33N 35°27' E 139°39'0 0.0
2014-Apr-17 22:33N 35°27' E 139°39'0 0.0
2014-Apr-17 07:13N 35°27' E 139°39'0 0.0
2014-Apr-17 06:34N 35°27' E 139°39'0 0.0
2014-Apr-17 05:34N 35°27' E 139°39'0 0.0
2014-Apr-17 04:33N 35°27' E 139°39'2 2.1
2014-Apr-17 03:33N 35°27' E 139°42'1010.1
2014-Apr-17 02:33N 35°30' E 139°54'6 6.1
2014-Apr-17 01:33N 35°30' E 140°01'1 1.3
2014-Apr-17 00:34N 35°31' E 140°00'1 0.5
2014-Apr-16 23:34N 35°31' E 140°01'0 0.2
2014-Apr-16 22:34N 35°31' E 140°01'1 0.9
2014-Apr-16 21:33N 35°31' E 140°02'1212.0
2014-Apr-16 20:33N 35°27' E 139°48'7 6.8
2014-Apr-16 19:29N 35°27' E 139°39'0 0.0
2014-Apr-16 06:33N 35°27' E 139°39'10 9.6
2014-Apr-16 05:33N 35°18' E 139°41'0 0.0
2014-Apr-15 01:34N 35°18' E 139°41'2 1.6
2014-Apr-15 00:33N 35°19' E 139°42'  

Dump ship's entire track history

sailing weather and tide predictions

Chitose — JD2925 — position and weather